createdAt,value
2022-11-29T00:01:01.383Z,74.33
2022-11-29T00:03:29.131Z,74.48
2022-11-29T00:05:56.280Z,74.73
2022-11-29T00:08:23.820Z,75.13
2022-11-29T00:10:50.882Z,75.44
2022-11-29T00:13:17.999Z,75.21
2022-11-29T00:15:45.078Z,75.50
2022-11-29T00:18:12.289Z,76.13
2022-11-29T00:20:39.988Z,76.01
2022-11-29T00:23:07.115Z,76.03
2022-11-29T00:25:34.164Z,76.80
2022-11-29T00:28:01.282Z,75.82
2022-11-29T00:30:28.387Z,75.81
2022-11-29T00:32:55.838Z,75.84
2022-11-29T00:35:23.619Z,76.07
2022-11-29T00:37:50.688Z,76.38
2022-11-29T00:40:17.791Z,77.01
2022-11-29T00:42:44.809Z,76.92
2022-11-29T00:45:12.179Z,77.50
2022-11-29T00:47:39.630Z,77.57
2022-11-29T00:50:07.214Z,77.54
2022-11-29T00:52:34.280Z,77.87
2022-11-29T00:55:01.346Z,79.03
2022-11-29T00:57:28.441Z,78.76
2022-11-29T00:59:55.486Z,78.36
2022-11-29T01:02:22.737Z,78.68
2022-11-29T01:04:51.015Z,78.67
2022-11-29T01:07:18.645Z,78.76
2022-11-29T01:09:45.905Z,79.30
2022-11-29T01:12:13.215Z,79.31
2022-11-29T01:14:40.425Z,78.96
2022-11-29T01:17:07.800Z,79.19
2022-11-29T01:19:35.528Z,79.79
2022-11-29T01:22:02.749Z,80.25
2022-11-29T01:24:30.466Z,80.43
2022-11-29T01:26:57.553Z,80.45
2022-11-29T01:29:24.762Z,80.30
2022-11-29T01:31:51.792Z,80.93
2022-11-29T01:34:18.944Z,80.69
2022-11-29T01:36:46.027Z,80.96
2022-11-29T01:39:13.389Z,80.63
2022-11-29T01:41:40.571Z,80.97
2022-11-29T01:44:13.680Z,81.29
2022-11-29T01:46:43.362Z,81.12
2022-11-29T01:49:34.827Z,81.40
2022-11-29T01:52:18.763Z,80.88
2022-11-29T01:54:49.163Z,81.00
2022-11-29T01:57:16.610Z,81.15
2022-11-29T01:59:50.226Z,81.23
2022-11-29T02:02:25.332Z,80.93
2022-11-29T02:04:52.426Z,81.47
2022-11-29T02:07:19.754Z,81.23
2022-11-29T02:09:48.105Z,81.74
2022-11-29T02:12:21.236Z,81.77
2022-11-29T02:15:10.124Z,81.73
2022-11-29T02:17:49.621Z,81.75
2022-11-29T02:20:28.512Z,81.20
2022-11-29T02:23:23.283Z,81.46
2022-11-29T02:26:14.802Z,81.35
2022-11-29T02:29:16.125Z,81.87
2022-11-29T02:32:19.726Z,82.01
2022-11-29T02:35:13.054Z,82.04
2022-11-29T02:37:40.024Z,82.31
2022-11-29T02:40:32.792Z,81.98
2022-11-29T02:43:20.868Z,81.89
2022-11-29T02:45:59.975Z,81.93
2022-11-29T02:48:53.746Z,81.47
2022-11-29T02:51:59.140Z,81.63
2022-11-29T02:54:37.118Z,81.56
2022-11-29T02:57:04.218Z,81.89
2022-11-29T02:59:33.964Z,82.18
2022-11-29T03:02:12.102Z,81.88
2022-11-29T03:05:09.975Z,81.90
2022-11-29T03:08:18.403Z,82.04
2022-11-29T03:10:56.933Z,82.55
2022-11-29T03:13:36.067Z,82.48
2022-11-29T03:16:06.802Z,82.54
2022-11-29T03:18:35.341Z,81.95
2022-11-29T03:21:10.206Z,81.61
2022-11-29T03:23:57.733Z,81.88
2022-11-29T03:26:46.146Z,82.17
2022-11-29T03:29:33.270Z,82.04
2022-11-29T03:32:28.275Z,81.98
2022-11-29T03:35:04.581Z,81.69
2022-11-29T03:38:02.731Z,81.57
2022-11-29T03:40:52.450Z,81.28
2022-11-29T03:43:27.948Z,81.31
2022-11-29T03:46:05.735Z,81.69
2022-11-29T03:48:41.195Z,81.60
2022-11-29T03:51:20.617Z,81.90
2022-11-29T03:53:57.627Z,81.58
2022-11-29T03:56:34.166Z,81.67
2022-11-29T03:59:21.107Z,81.44
2022-11-29T04:02:20.993Z,81.46
2022-11-29T04:05:20.149Z,81.26
2022-11-29T04:08:05.744Z,81.39
2022-11-29T04:10:56.863Z,81.44
2022-11-29T04:13:36.971Z,81.70
2022-11-29T04:16:31.791Z,80.98
2022-11-29T04:19:28.176Z,81.17
2022-11-29T04:22:12.554Z,81.39
2022-11-29T04:25:03.601Z,80.93
2022-11-29T04:28:00.264Z,81.41
2022-11-29T04:30:28.143Z,81.47
2022-11-29T04:33:17.494Z,81.62
2022-11-29T04:36:26.668Z,81.41
2022-11-29T04:39:28.687Z,81.25
2022-11-29T04:42:33.887Z,81.44
2022-11-29T04:45:03.946Z,81.05
2022-11-29T04:47:41.203Z,81.94
2022-11-29T04:50:31.940Z,81.56
2022-11-29T04:53:27.909Z,81.50
2022-11-29T04:56:16.419Z,81.38
2022-11-29T04:59:25.217Z,81.38
2022-11-29T05:01:58.065Z,81.45
2022-11-29T05:04:48.071Z,81.91
2022-11-29T05:07:29.443Z,81.53
2022-11-29T05:10:33.859Z,81.74
2022-11-29T05:13:07.165Z,81.85
2022-11-29T05:15:56.028Z,81.82
2022-11-29T05:18:38.169Z,82.19
2022-11-29T05:21:09.752Z,81.75
2022-11-29T05:23:56.774Z,81.86
2022-11-29T05:26:38.562Z,81.91
2022-11-29T05:29:17.158Z,81.84
2022-11-29T05:32:04.098Z,81.93
2022-11-29T05:34:44.387Z,81.70
2022-11-29T05:37:27.376Z,82.21
2022-11-29T05:40:34.243Z,82.00
2022-11-29T05:43:14.836Z,81.75
2022-11-29T05:46:03.003Z,81.83
2022-11-29T05:48:44.899Z,81.75
2022-11-29T05:51:22.463Z,81.71
2022-11-29T05:54:27.094Z,81.04
2022-11-29T05:57:05.354Z,81.31
2022-11-29T05:59:33.135Z,81.20
2022-11-29T06:02:03.191Z,81.38
2022-11-29T06:04:48.287Z,81.57
2022-11-29T06:07:24.909Z,81.48
2022-11-29T06:10:02.470Z,81.48
2022-11-29T06:12:35.692Z,81.59
2022-11-29T06:15:16.366Z,81.58
2022-11-29T06:18:17.942Z,81.83
2022-11-29T06:21:03.058Z,81.66
2022-11-29T06:23:46.310Z,81.63
2022-11-29T06:26:24.186Z,81.79
2022-11-29T06:29:09.976Z,82.04
2022-11-29T06:31:40.186Z,81.96
2022-11-29T06:34:10.358Z,81.77
2022-11-29T06:37:05.752Z,81.51
2022-11-29T06:39:33.148Z,81.21
2022-11-29T06:42:00.335Z,81.17
2022-11-29T06:44:27.647Z,80.50
2022-11-29T06:47:10.721Z,80.82
2022-11-29T06:49:44.402Z,80.37
2022-11-29T06:52:28.588Z,80.45
2022-11-29T06:55:40.064Z,80.31
2022-11-29T06:58:31.442Z,80.95
2022-11-29T07:01:37.840Z,80.50
2022-11-29T07:04:18.065Z,80.61
2022-11-29T07:06:45.347Z,80.51
2022-11-29T07:09:20.303Z,80.54
2022-11-29T07:11:47.692Z,80.52
2022-11-29T07:14:15.069Z,80.51
2022-11-29T07:17:03.330Z,80.20
2022-11-29T07:20:09.532Z,80.14
2022-11-29T07:22:43.922Z,80.67
2022-11-29T07:25:29.464Z,81.04
2022-11-29T07:28:18.229Z,81.29
2022-11-29T07:30:48.280Z,81.51
2022-11-29T07:33:53.867Z,81.22
2022-11-29T07:36:26.016Z,81.60
2022-11-29T07:39:15.276Z,81.78
2022-11-29T07:42:00.515Z,81.54
2022-11-29T07:44:34.005Z,80.97
2022-11-29T07:47:01.337Z,81.10
2022-11-29T07:49:28.500Z,81.32
2022-11-29T07:51:55.660Z,81.39
2022-11-29T07:54:22.876Z,81.92
2022-11-29T07:56:49.995Z,81.83
2022-11-29T07:59:17.508Z,82.20
2022-11-29T08:01:44.698Z,82.07
2022-11-29T08:04:11.907Z,81.34
2022-11-29T08:06:39.106Z,81.61
2022-11-29T08:09:07.569Z,81.81
2022-11-29T08:11:34.714Z,81.70
2022-11-29T08:14:03.431Z,81.87
2022-11-29T08:16:30.700Z,81.80
2022-11-29T08:18:57.773Z,82.14
2022-11-29T08:21:24.847Z,82.83
2022-11-29T08:23:52.059Z,82.47
2022-11-29T08:26:20.919Z,82.64
2022-11-29T08:28:52.470Z,83.39
2022-11-29T08:31:20.447Z,82.90
2022-11-29T08:33:47.702Z,83.31
2022-11-29T08:36:19.437Z,82.82
2022-11-29T08:38:47.054Z,82.91
2022-11-29T08:41:15.599Z,82.92
2022-11-29T08:43:43.464Z,83.18
2022-11-29T08:46:16.673Z,83.25
2022-11-29T08:48:46.378Z,82.86
2022-11-29T08:51:13.803Z,83.32
2022-11-29T08:53:43.784Z,83.02
2022-11-29T08:56:53.530Z,83.20
2022-11-29T08:58:59.985Z,82.49
2022-11-29T09:01:27.298Z,82.78
2022-11-29T09:04:02.455Z,83.16
2022-11-29T09:06:32.156Z,82.53
2022-11-29T09:08:59.914Z,82.52
2022-11-29T09:11:28.574Z,82.65
2022-11-29T09:14:00.338Z,82.05
2022-11-29T09:16:30.660Z,82.82
2022-11-29T09:18:57.784Z,82.81
2022-11-29T09:21:27.620Z,83.66
2022-11-29T09:23:59.160Z,81.61
2022-11-29T09:26:29.406Z,82.92
2022-11-29T09:28:59.992Z,82.55
2022-11-29T09:31:28.040Z,82.56
2022-11-29T09:33:55.852Z,82.77
2022-11-29T09:36:28.073Z,83.13
2022-11-29T09:38:57.047Z,82.35
2022-11-29T09:41:57.390Z,82.44
2022-11-29T09:44:30.133Z,82.64
2022-11-29T09:47:05.920Z,82.86
2022-11-29T09:49:52.347Z,82.66
2022-11-29T09:52:41.612Z,82.51
2022-11-29T09:55:43.191Z,82.51
2022-11-29T09:58:14.174Z,81.73
2022-11-29T10:00:54.753Z,81.96
2022-11-29T10:03:32.112Z,81.81
2022-11-29T10:06:23.955Z,81.59
2022-11-29T10:08:59.585Z,81.05
2022-11-29T10:11:37.265Z,81.11
2022-11-29T10:14:15.001Z,80.30
2022-11-29T10:16:50.914Z,80.49
2022-11-29T10:19:28.010Z,80.71
2022-11-29T10:21:59.851Z,80.46
2022-11-29T10:24:29.252Z,80.84
2022-11-29T10:26:56.500Z,80.12
2022-11-29T10:29:23.675Z,80.02
2022-11-29T10:31:51.031Z,79.75
2022-11-29T10:34:20.722Z,79.08
2022-11-29T10:36:59.537Z,79.39
2022-11-29T10:39:44.569Z,79.09
2022-11-29T10:42:37.648Z,79.36
2022-11-29T10:45:22.684Z,79.25
2022-11-29T10:47:51.095Z,78.88
2022-11-29T10:50:29.612Z,77.71
2022-11-29T10:53:03.960Z,77.60
2022-11-29T10:55:36.777Z,78.42
2022-11-29T10:58:13.572Z,77.87
2022-11-29T11:01:02.922Z,77.30
2022-11-29T11:03:52.770Z,77.52
2022-11-29T11:06:22.491Z,77.41
2022-11-29T11:08:55.126Z,76.88
2022-11-29T11:11:27.970Z,76.56
2022-11-29T11:14:06.758Z,77.08
2022-11-29T11:16:37.373Z,76.39
2022-11-29T11:19:31.848Z,77.05
2022-11-29T11:22:01.360Z,76.64
2022-11-29T11:24:31.614Z,76.45
2022-11-29T11:26:59.560Z,76.66
2022-11-29T11:29:35.612Z,76.58
2022-11-29T11:32:03.316Z,76.47
2022-11-29T11:34:35.951Z,75.82
2022-11-29T11:37:14.990Z,75.89
2022-11-29T11:39:43.221Z,76.47
2022-11-29T11:42:32.120Z,76.57
2022-11-29T11:44:59.900Z,75.82
2022-11-29T11:47:29.333Z,75.99
2022-11-29T11:50:02.351Z,76.41
2022-11-29T11:52:49.912Z,74.93
2022-11-29T11:55:43.202Z,75.34
2022-11-29T11:58:17.336Z,75.59
2022-11-29T12:01:03.837Z,75.22
2022-11-29T12:03:49.796Z,75.18
2022-11-29T12:06:35.129Z,74.99
2022-11-29T12:09:18.740Z,75.40
2022-11-29T12:11:51.547Z,75.57
2022-11-29T12:14:25.874Z,75.77
2022-11-29T12:16:59.751Z,75.30
2022-11-29T12:19:32.669Z,75.33
2022-11-29T12:22:03.363Z,75.87
2022-11-29T12:24:38.388Z,75.01
2022-11-29T12:27:06.201Z,75.16
2022-11-29T12:29:34.644Z,74.66
2022-11-29T12:32:20.547Z,75.18
2022-11-29T12:34:53.596Z,74.74
2022-11-29T12:37:38.379Z,74.83
2022-11-29T12:40:05.518Z,75.23
2022-11-29T12:42:39.981Z,75.59
2022-11-29T12:45:30.294Z,75.36
2022-11-29T12:48:34.879Z,75.09
2022-11-29T12:51:15.978Z,75.59
2022-11-29T12:53:54.856Z,75.13
2022-11-29T12:56:27.042Z,74.48
2022-11-29T12:59:15.375Z,75.10
2022-11-29T13:02:16.403Z,74.99
2022-11-29T13:05:06.724Z,74.54
2022-11-29T13:08:10.542Z,74.87
2022-11-29T13:11:05.673Z,75.14
2022-11-29T13:13:44.649Z,75.08
2022-11-29T13:16:15.821Z,74.74
2022-11-29T13:19:05.152Z,74.95
2022-11-29T13:21:37.347Z,74.50
2022-11-29T13:24:27.015Z,74.41
2022-11-29T13:26:54.386Z,74.69
2022-11-29T13:29:21.752Z,74.25
2022-11-29T13:31:48.994Z,74.22
2022-11-29T13:34:23.366Z,74.50
2022-11-29T13:37:01.417Z,74.63
2022-11-29T13:39:31.171Z,74.43
2022-11-29T13:42:21.282Z,74.22
2022-11-29T13:45:10.058Z,74.41
2022-11-29T13:47:54.609Z,74.42
2022-11-29T13:50:40.137Z,73.87
2022-11-29T13:53:22.678Z,74.48
2022-11-29T13:56:02.312Z,74.55
2022-11-29T13:58:29.305Z,73.92
2022-11-29T14:01:00.871Z,73.92
2022-11-29T14:03:29.758Z,74.23
2022-11-29T14:06:03.388Z,74.41
2022-11-29T14:08:48.130Z,74.68
2022-11-29T14:11:24.259Z,74.22
2022-11-29T14:13:55.095Z,74.37
2022-11-29T14:16:43.656Z,74.67
2022-11-29T14:19:10.745Z,74.63
2022-11-29T14:22:02.901Z,74.35
2022-11-29T14:24:35.835Z,74.43
2022-11-29T14:27:05.889Z,74.93
2022-11-29T14:29:48.521Z,74.89
2022-11-29T14:32:25.110Z,74.19
2022-11-29T14:34:57.992Z,74.68
2022-11-29T14:37:31.500Z,74.10
2022-11-29T14:40:01.496Z,74.29
2022-11-29T14:42:29.163Z,74.60
2022-11-29T14:45:00.642Z,74.69
2022-11-29T14:47:31.840Z,74.94
2022-11-29T14:50:01.879Z,74.30
2022-11-29T14:52:52.278Z,74.32
2022-11-29T14:55:25.275Z,74.49
2022-11-29T14:57:58.395Z,74.02
2022-11-29T15:00:29.351Z,74.59
2022-11-29T15:03:17.282Z,74.06
2022-11-29T15:05:45.188Z,74.62
2022-11-29T15:08:16.745Z,74.55
2022-11-29T15:10:49.296Z,74.63
2022-11-29T15:13:24.080Z,74.76
2022-11-29T15:16:16.373Z,74.69
2022-11-29T15:19:22.426Z,74.40
2022-11-29T15:22:12.706Z,74.64
2022-11-29T15:24:50.671Z,75.21
2022-11-29T15:27:18.275Z,75.01
2022-11-29T15:29:48.628Z,74.65
2022-11-29T15:32:22.330Z,74.85
2022-11-29T15:34:54.506Z,74.78
2022-11-29T15:37:39.548Z,75.87
2022-11-29T15:40:20.304Z,75.23
2022-11-29T15:42:52.483Z,74.92
2022-11-29T15:45:26.553Z,75.15
2022-11-29T15:47:54.256Z,75.15
2022-11-29T15:50:32.592Z,75.56
2022-11-29T15:53:03.493Z,75.21
2022-11-29T15:55:30.723Z,75.27
2022-11-29T15:58:01.595Z,74.72
2022-11-29T16:00:33.763Z,75.21
2022-11-29T16:03:02.314Z,74.76
2022-11-29T16:05:33.140Z,75.23
2022-11-29T16:08:04.402Z,75.04
2022-11-29T16:10:43.574Z,75.40
2022-11-29T16:13:25.707Z,75.39
2022-11-29T16:16:27.195Z,75.29
2022-11-29T16:18:54.485Z,75.63
2022-11-29T16:21:26.006Z,75.53
2022-11-29T16:23:53.908Z,75.56
2022-11-29T16:26:27.659Z,75.87
2022-11-29T16:28:57.785Z,75.71
2022-11-29T16:31:32.405Z,75.83
2022-11-29T16:34:14.258Z,75.69
2022-11-29T16:36:41.353Z,75.72
2022-11-29T16:39:22.723Z,75.57
2022-11-29T16:42:08.368Z,75.66
2022-11-29T16:44:54.914Z,75.98
2022-11-29T16:47:27.275Z,76.04
2022-11-29T16:50:12.802Z,76.11
2022-11-29T16:52:39.879Z,76.62
2022-11-29T16:55:07.390Z,76.22
2022-11-29T16:57:34.802Z,75.95
2022-11-29T17:00:02.025Z,76.16
2022-11-29T17:02:30.073Z,75.98
2022-11-29T17:04:58.211Z,76.68
2022-11-29T17:07:30.252Z,76.48
2022-11-29T17:09:58.015Z,77.09
2022-11-29T17:12:25.158Z,77.09
2022-11-29T17:14:52.276Z,76.94
2022-11-29T17:17:20.014Z,76.61
2022-11-29T17:19:47.172Z,77.19
2022-11-29T17:22:14.403Z,77.24
2022-11-29T17:24:46.393Z,77.04
2022-11-29T17:27:14.972Z,77.26
2022-11-29T17:29:42.051Z,77.23
2022-11-29T17:32:09.296Z,77.44
2022-11-29T17:34:36.424Z,77.78
2022-11-29T17:37:03.545Z,77.10
2022-11-29T17:39:30.648Z,77.17
2022-11-29T17:41:58.046Z,77.40
2022-11-29T17:44:25.244Z,77.35
2022-11-29T17:46:52.572Z,77.48
2022-11-29T17:49:19.942Z,77.69
2022-11-29T17:51:52.184Z,77.91
2022-11-29T17:54:21.775Z,77.61
2022-11-29T17:56:49.307Z,78.17
2022-11-29T17:59:16.622Z,77.91
2022-11-29T18:01:54.603Z,78.20
2022-11-29T18:04:21.887Z,78.25
2022-11-29T18:06:51.829Z,77.82
2022-11-29T18:09:19.530Z,77.67
2022-11-29T18:11:49.395Z,77.82
2022-11-29T18:14:28.362Z,77.75
2022-11-29T18:16:55.870Z,77.56
2022-11-29T18:19:26.979Z,77.41
2022-11-29T18:21:54.213Z,77.59
2022-11-29T18:24:21.259Z,77.34
2022-11-29T18:26:48.584Z,77.10
2022-11-29T18:29:15.969Z,76.98
2022-11-29T18:31:46.608Z,77.14
2022-11-29T18:34:14.342Z,76.74
2022-11-29T18:36:46.890Z,76.79
2022-11-29T18:39:16.689Z,77.51
2022-11-29T18:41:45.306Z,77.34
2022-11-29T18:44:13.837Z,77.29
2022-11-29T18:46:43.046Z,76.81
2022-11-29T18:49:13.083Z,76.89
2022-11-29T18:51:42.238Z,77.13
2022-11-29T18:54:09.353Z,77.66
2022-11-29T18:56:37.272Z,77.45
2022-11-29T18:59:10.314Z,77.60
2022-11-29T19:01:41.109Z,77.33
2022-11-29T19:04:13.790Z,77.43
2022-11-29T19:06:41.333Z,77.59
2022-11-29T19:09:12.963Z,77.57
2022-11-29T19:11:40.622Z,77.42
2022-11-29T19:14:11.701Z,77.76
2022-11-29T19:16:40.991Z,77.53
2022-11-29T19:19:08.267Z,77.42
2022-11-29T19:21:35.824Z,77.65
2022-11-29T19:24:05.394Z,77.93
2022-11-29T19:26:33.517Z,77.63
2022-11-29T19:29:01.125Z,77.73
2022-11-29T19:31:28.718Z,77.74
2022-11-29T19:33:56.548Z,77.79
2022-11-29T19:36:29.261Z,77.68
2022-11-29T19:38:57.196Z,78.18
2022-11-29T19:41:27.504Z,77.83
2022-11-29T19:43:59.793Z,77.65
2022-11-29T19:46:30.387Z,77.87
2022-11-29T19:48:58.878Z,77.46
2022-11-29T19:51:27.106Z,77.40
2022-11-29T19:53:55.810Z,77.54
2022-11-29T19:56:23.484Z,77.19
2022-11-29T19:58:50.878Z,77.36
2022-11-29T20:01:23.056Z,77.23
2022-11-29T20:03:51.469Z,77.49
2022-11-29T20:06:19.154Z,77.67
2022-11-29T20:08:46.524Z,77.32
2022-11-29T20:11:16.520Z,77.31
2022-11-29T20:13:47.173Z,77.13
2022-11-29T20:16:17.112Z,76.83
2022-11-29T20:18:50.446Z,76.93
2022-11-29T20:21:27.073Z,77.25
2022-11-29T20:23:56.472Z,77.04
2022-11-29T20:26:23.914Z,77.28
2022-11-29T20:28:51.161Z,77.25
2022-11-29T20:31:22.610Z,77.04
2022-11-29T20:33:51.873Z,77.56
2022-11-29T20:36:32.291Z,77.36
2022-11-29T20:39:21.310Z,77.22
2022-11-29T20:41:54.552Z,77.34
2022-11-29T20:44:27.996Z,77.06
2022-11-29T20:46:55.431Z,77.40
2022-11-29T20:49:22.648Z,77.22
2022-11-29T20:51:55.572Z,77.35
2022-11-29T20:54:22.619Z,77.19
2022-11-29T20:56:49.694Z,77.42
2022-11-29T20:59:16.790Z,77.30
2022-11-29T21:01:43.948Z,77.28
2022-11-29T21:04:11.295Z,77.19
2022-11-29T21:06:38.869Z,77.14
2022-11-29T21:09:06.448Z,77.44
2022-11-29T21:11:33.782Z,77.19
2022-11-29T21:14:03.848Z,77.59
2022-11-29T21:16:31.672Z,77.14
2022-11-29T21:19:01.208Z,77.35
2022-11-29T21:21:39.927Z,77.74
2022-11-29T21:24:48.238Z,77.27
2022-11-29T21:27:18.978Z,77.32
2022-11-29T21:29:46.326Z,77.41
2022-11-29T21:32:21.578Z,77.50
2022-11-29T21:34:49.377Z,76.96
2022-11-29T21:37:18.119Z,77.02
2022-11-29T21:39:45.413Z,77.17
2022-11-29T21:42:12.473Z,76.95
2022-11-29T21:44:39.525Z,76.95
2022-11-29T21:47:06.603Z,76.99
2022-11-29T21:49:33.673Z,77.02
2022-11-29T21:52:01.199Z,76.65
2022-11-29T21:54:29.296Z,76.86
2022-11-29T21:56:56.405Z,77.25
2022-11-29T21:59:24.903Z,76.65
2022-11-29T22:01:52.643Z,76.75
2022-11-29T22:04:20.257Z,76.63
2022-11-29T22:06:47.462Z,76.63
2022-11-29T22:09:14.531Z,76.33
2022-11-29T22:11:41.980Z,76.49
2022-11-29T22:14:14.447Z,76.25
2022-11-29T22:16:52.029Z,76.45
2022-11-29T22:19:26.885Z,76.44
2022-11-29T22:21:56.845Z,75.92
2022-11-29T22:24:26.006Z,76.07
2022-11-29T22:26:53.472Z,76.10
2022-11-29T22:29:20.875Z,75.76
2022-11-29T22:31:49.785Z,75.78
2022-11-29T22:34:17.168Z,75.96
2022-11-29T22:36:44.383Z,75.85
2022-11-29T22:39:11.760Z,75.96
2022-11-29T22:41:39.718Z,76.09
2022-11-29T22:44:07.379Z,75.84
2022-11-29T22:46:37.950Z,75.83
2022-11-29T22:49:05.045Z,75.81
2022-11-29T22:51:34.404Z,75.35
2022-11-29T22:54:04.000Z,75.57
2022-11-29T22:56:36.102Z,75.71
2022-11-29T22:59:04.064Z,75.03
2022-11-29T23:01:33.420Z,75.52
2022-11-29T23:04:03.995Z,75.34
2022-11-29T23:06:36.172Z,75.42
2022-11-29T23:09:10.672Z,75.67
2022-11-29T23:11:38.252Z,75.58
2022-11-29T23:14:05.390Z,75.19
2022-11-29T23:16:33.430Z,75.72
2022-11-29T23:19:00.967Z,75.50
2022-11-29T23:21:30.416Z,75.31
2022-11-29T23:23:59.888Z,75.38
2022-11-29T23:26:46.420Z,75.41
2022-11-29T23:29:15.948Z,75.68
2022-11-29T23:31:43.331Z,75.90
2022-11-29T23:34:10.778Z,75.64
2022-11-29T23:36:37.857Z,75.60
2022-11-29T23:39:06.534Z,75.58
2022-11-29T23:41:35.286Z,75.55
2022-11-29T23:44:05.977Z,75.95
2022-11-29T23:46:34.684Z,75.52
2022-11-29T23:49:01.858Z,75.21
2022-11-29T23:51:29.037Z,75.46
2022-11-29T23:53:56.385Z,75.42
2022-11-29T23:56:23.455Z,74.98
2022-11-29T23:58:50.561Z,75.07
